Time;durP1;ratioP1;P1;durP2;ratioP2;P2;SDS_P1;SDS_P2;PMS_P1;PMS_P2;Temp;Humidity;BMP_temperature;BMP_pressure;BME280_temperature;BME280_humidity;BME280_pressure;Samples;Min_cycle;Max_cycle;Signal;HPM_P1;HPM_P2
2022/05/24 00:00:12;;;;;;;7.22;5.17;;;;;;;12.43;49.56;99174.80;1718994;81;21715;-71
2022/05/24 00:02:40;;;;;;;;;;;;;;;12.43;49.58;99178.30;1728259;81;21419;-72
2022/05/24 00:05:08;;;;;;;10.32;5.15;;;;;;;12.37;50.10;99179.95;1715581;80;21065;-70
2022/05/24 00:07:36;;;;;;;9.03;6.03;;;;;;;12.37;49.72;99177.31;1721369;80;21475;-72
2022/05/24 00:10:05;;;;;;;8.55;5.58;;;;;;;12.34;49.99;99184.55;1727820;80;21570;-72
2022/05/24 00:12:32;;;;;;;8.05;5.10;;;;;;;12.35;50.30;99188.42;1725312;80;21921;-72
2022/05/24 00:17:47;;;;;;;6.00;5.12;;;;;;;12.41;50.28;99188.53;1725016;81;21539;-71
2022/05/24 00:20:15;;;;;;;8.10;5.53;;;;;;;12.44;50.10;99190.53;1721288;81;21022;-70
2022/05/24 00:22:43;;;;;;;8.30;6.10;;;;;;;12.41;50.04;99191.17;1716668;80;21589;-71
2022/05/24 00:25:09;;;;;;;7.80;6.10;;;;;;;12.38;50.00;99186.94;1724308;80;21798;-71
2022/05/24 00:27:38;;;;;;;9.78;5.78;;;;;;;12.43;50.08;99187.98;1729319;81;21532;-71
2022/05/24 00:30:06;;;;;;;6.67;5.25;;;;;;;12.44;50.19;99186.58;1719942;81;21022;-71
2022/05/24 00:32:33;;;;;;;14.28;7.22;;;;;;;12.48;49.86;99188.56;1719767;81;21554;-72
2022/05/24 00:35:00;;;;;;;8.25;5.85;;;;;;;12.37;49.90;99192.30;1718079;80;21436;-71
2022/05/24 00:37:28;;;;;;;8.93;6.33;;;;;;;12.35;50.16;99194.17;1723171;81;21400;-71
2022/05/24 00:39:55;;;;;;;11.78;5.95;;;;;;;12.36;50.13;99191.93;1732092;80;27171;-71
2022/05/24 00:42:25;;;;;;;8.43;6.10;;;;;;;12.35;50.19;99198.13;1724474;81;21569;-73
2022/05/24 00:45:17;;;;;;;9.03;6.97;;;;;;;12.35;50.22;99196.80;1711646;80;21609;-71
2022/05/24 00:47:54;;;;;;;13.83;6.90;;;;;;;12.39;50.26;99204.91;1723961;80;21610;-72
2022/05/24 00:50:28;;;;;;;11.22;7.30;;;;;;;12.34;50.13;99206.52;1721450;81;21649;-72
2022/05/24 00:53:02;;;;;;;10.18;6.65;;;;;;;12.32;50.13;99206.20;1712314;81;21499;-71
2022/05/24 00:55:30;;;;;;;7.97;6.78;;;;;;;12.22;50.19;99205.88;1721306;80;21575;-72
2022/05/24 00:58:24;;;;;;;11.48;7.08;;;;;;;12.22;50.20;99203.23;1718497;81;21777;-71
2022/05/24 01:00:51;;;;;;;10.03;7.15;;;;;;;12.13;50.48;99205.94;1746254;78;21490;-71
2022/05/24 01:03:18;;;;;;;14.25;7.78;;;;;;;12.13;50.62;99207.27;1722549;81;21858;-71
2022/05/24 01:05:46;;;;;;;11.88;7.40;;;;;;;12.12;50.54;99213.93;1735618;80;21527;-72
2022/05/24 01:08:13;;;;;;;14.75;7.87;;;;;;;12.07;50.48;99212.41;1740099;80;21546;-71
2022/05/24 01:10:48;;;;;;;12.13;7.75;;;;;;;12.11;50.45;99205.63;1742138;81;21503;-71
2022/05/24 01:13:18;;;;;;;14.50;7.40;;;;;;;12.14;50.60;99202.83;1724005;80;21034;-71
2022/05/24 01:15:45;;;;;;;11.88;8.00;;;;;;;12.18;50.65;99204.35;1738311;80;21870;-71
2022/05/24 01:18:12;;;;;;;16.15;8.83;;;;;;;12.22;50.75;99207.19;1720287;81;21049;-71
2022/05/24 01:20:41;;;;;;;14.18;7.58;;;;;;;12.23;50.79;99202.31;1730842;81;21408;-71
2022/05/24 01:23:44;;;;;;;14.50;7.85;;;;;;;12.18;50.78;99205.19;1736761;80;21044;-71
2022/05/24 01:26:25;;;;;;;11.57;7.97;;;;;;;12.19;50.77;99202.95;1732281;80;21498;-70
2022/05/24 01:28:56;;;;;;;13.38;8.33;;;;;;;12.26;50.04;99205.63;1732163;80;21946;-70
2022/05/24 01:31:24;;;;;;;14.63;8.15;;;;;;;12.14;50.13;99202.83;1738451;80;21546;-70
2022/05/24 01:36:40;;;;;;;17.65;9.50;;;;;;;12.37;49.59;99201.04;1731286;80;21636;-73
2022/05/24 01:39:10;;;;;;;14.95;9.93;;;;;;;12.44;49.34;99206.83;1735485;80;21577;-71
2022/05/24 01:41:44;;;;;;;17.77;10.28;;;;;;;12.42;49.32;99200.80;1742293;81;21713;-73
2022/05/24 01:44:12;;;;;;;13.78;9.03;;;;;;;12.06;50.03;99200.16;1743092;80;21523;-71
2022/05/24 01:46:46;;;;;;;13.85;9.23;;;;;;;12.06;50.44;99195.36;1721347;81;21397;-72
2022/05/24 01:49:25;;;;;;;15.28;9.55;;;;;;;12.10;50.64;99201.31;1728974;80;21569;-72
2022/05/24 01:52:27;;;;;;;16.77;10.15;;;;;;;12.21;50.73;99201.55;1731761;80;21521;-71
2022/05/24 01:54:57;;;;;;;16.95;11.48;;;;;;;12.14;50.78;99200.20;1743340;80;21838;-72
2022/05/24 01:57:32;;;;;;;20.27;10.85;;;;;;;12.11;50.82;99206.50;1749667;80;21482;-72
2022/05/24 01:59:59;;;;;;;15.08;10.72;;;;;;;12.08;50.89;99204.87;1724358;80;21060;-71
2022/05/24 02:02:27;;;;;;;19.90;11.33;;;;;;;12.11;50.68;99202.99;1721054;81;21523;-72
2022/05/24 02:04:54;;;;;;;15.43;10.60;;;;;;;12.13;50.63;99206.39;1722264;81;21412;-72
2022/05/24 02:07:23;;;;;;;19.95;11.65;;;;;;;12.17;50.72;99212.73;1710459;81;21527;-72
2022/05/24 02:09:53;;;;;;;20.00;11.00;;;;;;;12.12;50.36;99211.30;1714841;80;21380;-73
2022/05/24 02:12:35;;;;;;;25.05;12.68;;;;;;;12.18;50.28;99215.73;1726054;80;21416;-72
2022/05/24 02:15:11;;;;;;;15.78;10.78;;;;;;;12.20;50.33;99215.66;1716723;81;21531;-72
2022/05/24 02:17:51;;;;;;;16.50;10.58;;;;;;;12.16;50.50;99221.56;1717242;80;21443;-73
2022/05/24 02:20:22;;;;;;;20.85;11.78;;;;;;;12.27;50.44;99217.02;1729879;80;21930;-72
2022/05/24 02:22:49;;;;;;;16.37;10.63;;;;;;;12.36;50.54;99226.20;1720169;81;21010;-70
2022/05/24 02:25:36;;;;;;;10.93;7.42;;;;;;;12.38;50.28;99238.83;1715818;81;21562;-70
2022/05/24 02:28:08;;;;;;;10.28;7.70;;;;;;;12.25;50.42;99234.70;1719850;80;21582;-70
2022/05/24 02:30:37;;;;;;;14.68;8.85;;;;;;;12.00;50.81;99242.66;1733556;80;21523;-70
2022/05/24 02:33:04;;;;;;;11.43;8.68;;;;;;;11.85;51.22;99239.52;1720414;80;21590;-70
2022/05/24 02:35:32;;;;;;;16.57;10.38;;;;;;;11.81;51.26;99240.59;1721974;80;21606;-70
2022/05/24 02:37:59;;;;;;;17.03;11.03;;;;;;;11.68;51.49;99239.11;1719584;80;21435;-69
2022/05/24 02:43:11;;;;;;;22.67;12.25;;;;;;;11.77;51.49;99237.75;1720248;81;21551;-69
2022/05/24 02:45:38;;;;;;;20.00;11.15;;;;;;;11.71;51.62;99236.77;1724761;80;21835;-69
2022/05/24 02:48:06;;;;;;;20.35;13.53;;;;;;;11.83;51.70;99240.91;1721866;81;21550;-70
2022/05/24 02:50:33;;;;;;;23.35;14.23;;;;;;;11.90;51.72;99238.81;1714085;80;21696;-69
2022/05/24 02:53:00;;;;;;;28.50;14.03;;;;;;;11.98;51.67;99236.63;1726643;80;21507;-70
2022/05/24 02:55:29;;;;;;;21.90;14.28;;;;;;;12.05;51.40;99236.67;1724467;80;20987;-69
2022/05/24 02:57:55;;;;;;;21.82;13.85;;;;;;;12.06;51.39;99233.09;1723105;80;21944;-69
2022/05/24 03:00:24;;;;;;;22.70;13.70;;;;;;;12.07;51.59;99237.44;1727019;81;21025;-71
2022/05/24 03:02:51;;;;;;;24.80;14.60;;;;;;;12.12;51.46;99240.28;1738750;80;21444;-73
2022/05/24 03:05:20;;;;;;;26.65;14.40;;;;;;;12.18;51.46;99243.88;1738145;80;21444;-72
2022/05/24 03:10:34;;;;;;;27.62;14.63;;;;;;;12.20;51.34;99245.97;1736902;80;22204;-70
2022/05/24 03:15:47;;;;;;;27.10;12.80;;;;;;;12.45;51.44;99247.61;1744651;80;20426;-70
2022/05/24 03:18:17;;;;;;;24.60;13.77;;;;;;;12.53;51.38;99251.61;1728508;81;21033;-70
2022/05/24 03:20:44;;;;;;;27.00;14.98;;;;;;;12.57;51.42;99253.13;1737503;80;21471;-70
2022/05/24 03:25:58;;;;;;;23.05;14.63;;;;;;;12.68;51.24;99248.53;1710849;82;21420;-70
2022/05/24 03:28:25;;;;;;;24.60;15.25;;;;;;;12.78;51.08;99256.31;1705616;82;21571;-70
2022/05/24 03:30:54;;;;;;;24.50;15.48;;;;;;;12.78;50.99;99252.35;1695084;82;21070;-70
2022/05/24 03:33:21;;;;;;;26.63;15.70;;;;;;;12.84;50.75;99268.66;1711687;82;21444;-70
2022/05/24 03:35:48;;;;;;;25.40;14.50;;;;;;;12.91;50.40;99267.00;1693746;82;22216;-71
2022/05/24 03:38:15;;;;;;;29.37;15.30;;;;;;;12.95;50.21;99264.56;1708854;82;21570;-71
2022/05/24 03:40:42;;;;;;;24.72;15.05;;;;;;;13.12;49.85;99268.84;1713601;82;21475;-72
2022/05/24 03:43:13;;;;;;;23.10;15.63;;;;;;;13.12;49.85;99268.84;1709705;82;21619;-70
2022/05/24 03:45:41;;;;;;;25.88;14.50;;;;;;;13.18;49.48;99271.11;1704684;82;21583;-71
2022/05/24 03:48:09;;;;;;;20.70;14.05;;;;;;;13.32;49.23;99263.73;1696141;82;21822;-71
2022/05/24 03:50:36;;;;;;;28.95;14.63;;;;;;;13.55;48.78;99260.54;1704320;82;21625;-71
2022/05/24 03:53:04;;;;;;;;;;;;;;;13.76;48.38;99265.45;1701198;82;21530;-72
2022/05/24 03:55:31;;;;;;;19.52;12.30;;;;;;;13.90;48.39;99260.61;1709571;82;20237;-71
2022/05/24 03:58:02;;;;;;;;;;;;;;;14.00;48.33;99261.75;1711123;82;21421;-70
2022/05/24 04:00:35;;;;;;;23.85;12.63;;;;;;;14.10;48.54;99262.85;1708999;81;21763;-69
2022/05/24 04:03:02;;;;;;;22.00;13.03;;;;;;;14.11;48.28;99265.89;1700594;82;21552;-71
2022/05/24 04:05:30;;;;;;;22.15;13.38;;;;;;;14.14;48.45;99263.51;1693034;81;21472;-69
2022/05/24 04:07:58;;;;;;;19.15;13.53;;;;;;;13.85;49.03;99270.64;1695852;82;21559;-70
2022/05/24 04:10:28;;;;;;;20.62;13.45;;;;;;;13.81;49.34;99271.30;1699931;81;21063;-70
2022/05/24 04:12:54;;;;;;;23.42;13.85;;;;;;;13.85;49.49;99272.80;1704235;82;21896;-71
2022/05/24 04:15:23;;;;;;;19.30;13.32;;;;;;;13.93;49.46;99271.84;1701599;82;21563;-71
2022/05/24 04:17:53;;;;;;;19.37;12.68;;;;;;;13.89;49.75;99280.08;1706455;82;21484;-71
2022/05/24 04:20:22;;;;;;;19.32;13.68;;;;;;;13.94;50.01;99276.20;1697438;82;20999;-70
2022/05/24 04:22:50;;;;;;;;;;;;;;;13.98;50.11;99282.14;1706469;82;21515;-69
2022/05/24 04:25:17;;;;;;;19.32;12.10;;;;;;;14.06;50.48;99282.98;1708889;82;22220;-71
2022/05/24 04:27:46;;;;;;;20.37;13.05;;;;;;;14.23;50.57;99291.17;1712009;82;21408;-71
2022/05/24 04:30:13;;;;;;;23.85;12.93;;;;;;;14.37;50.46;99287.16;1695443;82;21606;-72
2022/05/24 04:32:40;;;;;;;;;;;;;;;14.46;50.28;99290.53;1715681;82;21420;-70
2022/05/24 04:35:08;;;;;;;21.95;12.07;;;;;;;14.51;50.52;99283.64;1705154;82;20433;-69
2022/05/24 04:37:36;;;;;;;22.65;12.60;;;;;;;14.54;50.34;99288.71;1699916;82;21855;-69
2022/05/24 04:40:04;;;;;;;22.73;12.98;;;;;;;14.73;49.68;99295.00;1699171;82;21468;-70
2022/05/24 04:42:32;;;;;;;18.65;12.90;;;;;;;14.79;49.47;99293.30;1707400;82;21444;-71
2022/05/24 04:45:01;;;;;;;21.30;14.43;;;;;;;14.97;49.49;99293.41;1702343;82;21421;-69
2022/05/24 04:47:29;;;;;;;19.32;12.82;;;;;;;15.03;49.22;99291.28;1704081;82;21527;-70
2022/05/24 04:49:59;;;;;;;17.80;13.03;;;;;;;15.12;49.18;99292.84;1698132;82;21863;-71
2022/05/24 04:52:36;;;;;;;25.62;12.73;;;;;;;15.21;49.61;99297.16;1702523;82;20943;-69
2022/05/24 04:55:07;;;;;;;22.00;12.28;;;;;;;15.26;49.87;99291.09;1703286;82;21543;-69
2022/05/24 04:57:34;;;;;;;22.82;11.38;;;;;;;15.54;49.55;99296.19;1712425;82;21551;-69
2022/05/24 05:00:04;;;;;;;22.25;12.60;;;;;;;15.74;48.52;99305.42;1695613;82;21553;-72
2022/05/24 05:02:32;;;;;;;16.85;11.25;;;;;;;15.85;47.94;99308.66;1712459;82;21971;-70
2022/05/24 05:04:59;;;;;;;20.85;12.88;;;;;;;16.00;47.58;99308.55;1701870;82;21417;-71
2022/05/24 05:07:27;;;;;;;18.90;11.88;;;;;;;16.18;47.25;99308.58;1705994;82;21617;-72
2022/05/24 05:09:54;;;;;;;18.35;11.03;;;;;;;16.35;46.96;99304.71;1698191;82;21563;-72
2022/05/24 05:12:21;;;;;;;16.17;10.88;;;;;;;16.55;46.63;99305.90;1709084;82;21429;-71
2022/05/24 05:14:49;;;;;;;;;;;;;;;16.65;46.45;99304.73;1705897;82;21903;-71
2022/05/24 05:17:17;;;;;;;15.03;10.38;;;;;;;16.76;45.49;99302.14;1709828;82;20306;-69
2022/05/24 05:19:43;;;;;;;17.00;10.98;;;;;;;16.86;45.40;99297.89;1690094;83;21423;-70
2022/05/24 05:22:10;;;;;;;17.82;11.50;;;;;;;16.93;44.90;99304.45;1702713;82;21480;-70
2022/05/24 05:24:37;;;;;;;16.23;10.55;;;;;;;16.99;44.60;99307.13;1703092;81;21047;-70
2022/05/24 05:27:05;;;;;;;17.48;10.38;;;;;;;17.12;44.28;99303.05;1706736;83;21904;-70
2022/05/24 05:32:22;;;;;;;14.45;9.60;;;;;;;17.34;44.34;99308.92;1700845;83;21532;-61
2022/05/24 05:34:49;;;;;;;12.88;9.03;;;;;;;17.47;43.63;99310.16;1690070;83;21590;-63
2022/05/24 05:37:17;;;;;;;14.13;8.20;;;;;;;17.63;43.08;99309.81;1702845;83;21616;-60
2022/05/24 05:39:44;;;;;;;11.38;8.13;;;;;;;17.77;42.96;99304.77;1699067;83;21791;-62
2022/05/24 05:42:12;;;;;;;13.95;7.65;;;;;;;18.02;42.25;99300.56;1705147;83;21055;-63
2022/05/24 05:44:39;;;;;;;11.08;6.80;;;;;;;18.02;42.25;99300.56;1690926;83;21413;-60
2022/05/24 05:47:06;;;;;;;11.40;5.40;;;;;;;18.12;41.06;99299.37;1705137;83;21538;-64
2022/05/24 05:49:33;;;;;;;;;;;;;;;18.27;39.89;99302.13;1699803;83;21693;-63
2022/05/24 05:52:00;;;;;;;5.35;3.75;;;;;;;18.36;38.73;99301.85;1708923;83;21895;-61
2022/05/24 05:54:27;;;;;;;8.18;3.62;;;;;;;18.42;38.96;99297.39;1695048;83;21583;-63
2022/05/24 05:56:55;;;;;;;6.10;3.60;;;;;;;18.52;38.60;99304.14;1704647;83;21440;-61
2022/05/24 05:59:22;;;;;;;5.87;3.45;;;;;;;18.54;38.13;99299.53;1695442;83;21043;-60
2022/05/24 06:01:53;;;;;;;2.87;2.55;;;;;;;18.70;36.72;99300.44;1699570;83;21525;-60
2022/05/24 06:04:20;;;;;;;2.65;2.42;;;;;;;18.76;35.89;99303.09;1712365;82;21531;-60
2022/05/24 06:06:47;;;;;;;5.30;2.85;;;;;;;18.86;34.84;99299.58;1701230;83;21535;-62
2022/05/24 06:09:14;;;;;;;4.28;2.75;;;;;;;19.00;34.47;99306.91;1692737;83;21531;-61
2022/05/24 06:11:41;;;;;;;2.85;2.65;;;;;;;19.06;33.24;99305.93;1711579;83;21428;-61
2022/05/24 06:14:09;;;;;;;6.15;2.75;;;;;;;19.20;33.05;99310.59;1694538;83;21077;-62
2022/05/24 06:16:38;;;;;;;6.20;2.85;;;;;;;19.29;32.92;99307.61;1694469;83;21964;-63
2022/05/24 06:19:05;;;;;;;5.03;2.77;;;;;;;19.36;32.42;99312.79;1694069;83;21521;-63
2022/05/24 06:21:35;;;;;;;;;;;;;;;19.41;31.97;99311.42;1703883;83;20948;-64
2022/05/24 06:24:05;;;;;;;5.10;2.33;;;;;;;19.48;31.68;99309.09;1695045;83;20243;-64
2022/05/24 06:26:32;;;;;;;3.95;2.77;;;;;;;19.54;31.26;99306.39;1693534;83;21437;-64
2022/05/24 06:29:01;;;;;;;6.17;2.55;;;;;;;19.62;31.08;99309.23;1699090;83;21560;-64
2022/05/24 06:31:28;;;;;;;3.95;2.58;;;;;;;19.73;30.76;99311.02;1698340;83;21642;-63
2022/05/24 06:33:54;;;;;;;6.28;3.15;;;;;;;19.83;30.47;99307.44;1708546;83;21518;-64
2022/05/24 06:36:22;;;;;;;8.00;3.37;;;;;;;19.91;30.23;99316.11;1707128;83;21440;-61
2022/05/24 06:38:49;;;;;;;5.17;3.42;;;;;;;19.95;29.81;99306.85;1698344;83;21453;-61
2022/05/24 06:41:17;;;;;;;8.15;3.60;;;;;;;20.00;30.03;99310.44;1693094;83;21766;-65
2022/05/24 06:43:46;;;;;;;4.70;3.33;;;;;;;20.04;29.97;99302.52;1704075;83;21560;-66
2022/05/24 06:46:12;;;;;;;6.22;4.15;;;;;;;20.08;30.47;99310.62;1711890;82;21473;-66
2022/05/24 06:48:42;;;;;;;6.00;3.62;;;;;;;20.15;29.81;99305.08;1695854;83;21437;-66
2022/05/24 06:51:16;;;;;;;5.10;2.90;;;;;;;20.21;29.61;99315.24;1695010;83;21496;-65
2022/05/24 06:53:45;;;;;;;4.87;2.90;;;;;;;20.30;29.39;99299.38;1697553;83;21866;-65
2022/05/24 06:56:11;;;;;;;8.80;2.70;;;;;;;20.35;28.21;99291.81;1691906;83;21560;-65
2022/05/24 06:58:39;;;;;;;;;;;;;;;20.40;28.39;99303.77;1694856;83;20956;-64
2022/05/24 07:03:53;;;;;;;2.42;1.90;;;;;;;20.67;28.41;99309.48;1703525;83;21461;-65
2022/05/24 07:06:22;;;;;;;6.22;2.33;;;;;;;20.75;28.26;99312.30;1697284;82;21943;-64
2022/05/24 07:08:50;;;;;;;3.08;2.30;;;;;;;20.81;28.07;99313.06;1696135;82;21431;-65
2022/05/24 07:11:18;;;;;;;6.95;2.00;;;;;;;20.85;27.04;99307.82;1699763;83;21599;-64
2022/05/24 07:13:45;;;;;;;5.00;2.30;;;;;;;20.82;26.52;99316.11;1695272;81;21511;-65
2022/05/24 07:16:12;;;;;;;3.70;1.90;;;;;;;20.88;26.86;99314.20;1686534;81;21598;-65
2022/05/24 07:18:39;;;;;;;2.52;1.90;;;;;;;20.97;26.48;99316.54;1694515;83;21472;-63
2022/05/24 07:21:07;;;;;;;2.35;2.08;;;;;;;21.05;26.86;99314.00;1690337;81;21524;-63
2022/05/24 07:23:37;;;;;;;3.20;2.47;;;;;;;21.11;27.06;99316.59;1690431;83;21456;-64
2022/05/24 07:26:11;;;;;;;3.45;2.37;;;;;;;21.18;27.23;99320.41;1690083;83;21429;-64
2022/05/24 07:28:37;;;;;;;2.67;2.27;;;;;;;21.22;26.96;99321.80;1682466;81;21661;-66
2022/05/24 07:31:04;;;;;;;2.15;1.85;;;;;;;21.30;27.08;99327.77;1695028;81;21762;-64
2022/05/24 07:33:32;;;;;;;5.00;2.60;;;;;;;21.31;27.31;99330.31;1695572;83;21067;-65
2022/05/24 07:35:59;;;;;;;3.90;2.02;;;;;;;21.41;27.32;99328.95;1698265;83;21539;-66
2022/05/24 07:38:26;;;;;;;5.40;2.23;;;;;;;21.49;26.78;99330.95;1696525;83;21519;-65
2022/05/24 07:46:26;;;;;;;3.77;2.62;;;;;;;21.63;26.01;99336.36;1706009;82;21436;-66
2022/05/24 07:48:53;;;;;;;3.37;2.12;;;;;;;21.62;26.05;99331.48;1696596;82;20971;-66
2022/05/24 07:51:20;;;;;;;4.08;2.45;;;;;;;21.59;25.57;99329.11;1690516;83;21542;-66
2022/05/24 07:53:47;;;;;;;5.33;2.60;;;;;;;21.62;25.48;99325.30;1698002;83;21484;-64
2022/05/24 07:56:15;;;;;;;4.08;2.45;;;;;;;21.64;25.69;99325.49;1697252;83;21611;-62
2022/05/24 07:58:43;;;;;;;3.55;2.27;;;;;;;21.70;25.96;99327.61;1694413;83;21586;-65
2022/05/24 08:01:10;;;;;;;2.70;2.12;;;;;;;21.74;25.70;99329.50;1702377;82;21547;-64
2022/05/24 08:03:42;;;;;;;6.08;2.70;;;;;;;21.70;25.67;99322.27;1701843;83;21496;-64
2022/05/24 08:06:07;;;;;;;3.22;2.12;;;;;;;21.77;26.05;99330.06;1701257;82;21626;-66
2022/05/24 08:08:34;;;;;;;4.43;2.40;;;;;;;21.86;25.36;99331.00;1710920;82;21876;-66
2022/05/24 08:11:01;;;;;;;4.12;2.67;;;;;;;21.86;25.66;99329.66;1703550;83;21776;-66
2022/05/24 08:14:28;;;;;;;4.80;2.70;;;;;;;21.14;27.13;99333.70;1775310;78;23148;-63
2022/05/24 08:16:56;;;;;;;7.47;2.72;;;;;;;22.11;25.83;99328.19;1747457;80;21420;-63
2022/05/24 08:19:23;;;;;;;3.95;2.77;;;;;;;22.07;25.25;99329.45;1740547;80;21823;-63
2022/05/24 08:21:49;;;;;;;5.97;2.52;;;;;;;21.93;25.07;99324.59;1738073;80;21428;-63
2022/05/24 08:24:16;;;;;;;5.47;2.12;;;;;;;21.96;25.54;99325.14;1739358;80;21065;-65
2022/05/24 08:26:43;;;;;;;4.60;2.00;;;;;;;22.00;24.87;99325.70;1735295;80;21447;-63
2022/05/24 08:29:10;;;;;;;3.10;2.08;;;;;;;22.11;24.88;99326.84;1733574;80;21566;-65
2022/05/24 08:31:37;;;;;;;4.55;2.80;;;;;;;22.24;25.01;99329.66;1737151;80;22077;-65
2022/05/24 08:34:04;;;;;;;3.77;2.20;;;;;;;22.37;25.10;99328.85;1749499;80;21640;-64
2022/05/24 08:36:31;;;;;;;3.37;1.87;;;;;;;22.29;24.38;99328.77;1695745;82;21510;-64
2022/05/24 08:38:58;;;;;;;2.67;2.08;;;;;;;22.22;24.21;99325.79;1697406;81;21438;-70
2022/05/24 08:42:03;;;;;;;3.02;1.90;;;;;;;22.21;24.12;99319.23;1695084;82;22677;-70
2022/05/24 08:50:14;;;;;;;3.00;1.75;;;;;;;22.23;24.81;99329.34;1676113;81;21507;-64
2022/05/24 08:52:59;;;;;;;2.17;1.98;;;;;;;22.45;25.01;99330.31;1703200;81;21455;-62
2022/05/24 08:55:27;;;;;;;2.50;1.77;;;;;;;22.57;24.84;99324.75;1694770;83;21520;-64
2022/05/24 08:57:56;;;;;;;3.62;1.80;;;;;;;22.60;24.09;99332.46;1694333;82;21860;-66
2022/05/24 09:00:30;;;;;;;3.15;1.50;;;;;;;22.57;24.13;99320.73;1689840;81;21909;-64
2022/05/24 09:02:57;;;;;;;6.80;1.80;;;;;;;22.55;23.66;99319.53;1699436;81;21604;-66
2022/05/24 09:05:34;;;;;;;6.10;1.80;;;;;;;22.61;23.69;99319.42;1704228;81;21502;-63
2022/05/24 09:08:27;;;;;;;1.87;1.72;;;;;;;22.73;23.77;99322.22;1714752;81;21540;-64
2022/05/24 09:11:38;;;;;;;2.15;1.82;;;;;;;22.70;23.55;99322.55;1698694;82;21869;-63
2022/05/24 09:14:22;;;;;;;3.40;2.15;;;;;;;22.75;23.72;99325.59;1687636;82;21427;-63
2022/05/24 09:17:01;;;;;;;4.15;1.57;;;;;;;22.80;23.54;99323.81;1731906;80;21033;-64
2022/05/24 09:19:34;;;;;;;4.15;1.90;;;;;;;22.81;23.36;99322.80;1735784;80;21519;-65
2022/05/24 09:22:06;;;;;;;3.77;1.80;;;;;;;22.83;23.50;99316.78;1732428;80;21505;-65
2022/05/24 09:24:44;;;;;;;2.65;1.98;;;;;;;22.85;23.28;99313.45;1728754;80;21776;-64
2022/05/24 09:27:23;;;;;;;1.95;1.75;;;;;;;22.90;23.46;99309.83;1733483;80;21558;-63
2022/05/24 09:30:07;;;;;;;2.90;1.95;;;;;;;22.97;23.60;99308.73;1729156;80;21987;-62
2022/05/24 09:32:42;;;;;;;7.25;2.20;;;;;;;23.02;24.04;99306.41;1717794;80;21522;-61
2022/05/24 09:35:21;;;;;;;6.62;1.90;;;;;;;23.18;23.91;99306.59;1731811;80;21514;-60
2022/05/24 09:38:14;;;;;;;1.72;1.62;;;;;;;23.14;22.96;99311.92;1725991;80;22167;-63
2022/05/24 09:40:49;;;;;;;4.08;1.90;;;;;;;23.05;23.48;99305.64;1732691;80;21672;-63
2022/05/24 09:43:34;;;;;;;4.53;1.90;;;;;;;23.17;22.84;99311.62;1737871;80;21409;-62
2022/05/24 09:46:11;;;;;;;1.80;1.32;;;;;;;23.13;23.17;99312.91;1729218;80;21582;-62
2022/05/24 09:49:00;;;;;;;5.17;1.77;;;;;;;23.25;23.63;99313.53;1730943;80;21503;-62
2022/05/24 09:51:38;;;;;;;2.70;1.90;;;;;;;23.35;23.27;99314.78;1685649;80;21782;-63
2022/05/24 09:54:13;;;;;;;4.92;1.87;;;;;;;23.39;23.17;99308.09;1731825;80;21577;-63
2022/05/24 09:56:41;;;;;;;4.35;1.60;;;;;;;23.44;23.19;99312.50;1735013;82;21530;-64
2022/05/24 09:59:26;;;;;;;1.97;1.83;;;;;;;23.48;23.30;99308.50;1735133;80;21520;-62
2022/05/24 10:01:50;;;;;;;2.55;1.52;;;;;;;23.49;22.94;99308.35;1734545;80;21542;-62
2022/05/24 10:04:27;;;;;;;4.62;2.10;;;;;;;23.49;23.51;99300.81;1693547;82;21854;-64
2022/05/24 10:07:11;;;;;;;4.60;1.77;;;;;;;23.51;23.71;99298.30;1737082;80;20998;-64
2022/05/24 10:10:12;;;;;;;3.65;2.08;;;;;;;23.67;23.55;99296.72;1662163;83;21653;-65
2022/05/24 10:13:14;;;;;;;3.58;1.90;;;;;;;23.78;23.47;99300.48;1608027;86;21695;-63
2022/05/24 10:16:13;;;;;;;2.12;1.47;;;;;;;23.88;23.82;99300.39;1603518;87;20969;-62
2022/05/24 10:19:13;;;;;;;1.90;1.70;;;;;;;24.15;23.54;99305.22;1616409;86;21487;-63
2022/05/24 10:22:20;;;;;;;2.35;1.70;;;;;;;24.25;22.93;99302.75;1615672;86;21577;-62
2022/05/24 10:25:26;;;;;;;1.87;1.65;;;;;;;24.18;22.80;99304.91;1641690;85;21529;-64
2022/05/24 10:28:14;;;;;;;1.72;1.62;;;;;;;24.05;22.57;99291.44;1650140;86;21073;-64
2022/05/24 10:31:02;;;;;;;2.92;1.87;;;;;;;24.06;22.67;99291.77;1650621;85;21490;-65
2022/05/24 10:39:58;;;;;;;2.17;1.90;;;;;;;24.31;22.80;99297.23;1646719;86;21505;-64
2022/05/24 10:42:45;;;;;;;2.60;1.67;;;;;;;24.35;22.12;99282.97;1651997;85;21541;-67
2022/05/24 10:45:17;;;;;;;;;;;;;;;24.26;22.61;99292.84;1652448;85;22736;-63
2022/05/24 10:48:04;;;;;;;2.85;1.80;;;;;;;24.32;22.62;99290.00;1650654;85;21947;-70
2022/05/24 10:50:39;;;;;;;1.92;1.72;;;;;;;24.35;23.42;99290.52;1640838;85;21624;-70
2022/05/24 10:53:19;;;;;;;3.50;1.72;;;;;;;24.36;22.34;99289.53;1645911;85;21574;-68
2022/05/24 10:55:57;;;;;;;2.08;1.70;;;;;;;24.36;22.05;99288.70;1621739;86;21648;-69
2022/05/24 10:58:22;;;;;;;3.83;1.70;;;;;;;24.36;22.18;99279.30;1600752;88;21630;-68
2022/05/24 11:01:06;;;;;;;4.85;2.05;;;;;;;24.35;22.45;99293.72;1617642;88;22101;-62
2022/05/24 11:03:38;;;;;;;2.22;1.82;;;;;;;24.34;22.29;99294.74;1605569;86;21553;-61
2022/05/24 11:09:20;;;;;;;3.42;1.82;;;;;;;24.21;22.42;99287.97;1602305;87;21119;-62
2022/05/24 11:12:12;;;;;;;3.33;1.90;;;;;;;24.32;22.71;99284.63;1596011;87;21692;-62
2022/05/24 11:14:57;;;;;;;2.90;1.60;;;;;;;24.43;22.61;99283.85;1596746;87;21818;-61
2022/05/24 11:17:24;;;;;;;2.50;1.80;;;;;;;24.53;22.71;99288.28;1592529;88;21617;-61
2022/05/24 11:19:54;;;;;;;3.83;1.87;;;;;;;24.66;22.24;99289.47;1594843;88;21685;-61
2022/05/24 11:22:33;;;;;;;2.15;1.75;;;;;;;24.70;21.98;99282.44;1590587;88;21611;-62
2022/05/24 11:25:20;;;;;;;3.15;1.55;;;;;;;24.72;22.40;99285.28;1610118;87;21495;-62
2022/05/24 11:27:52;;;;;;;4.50;1.50;;;;;;;24.85;22.26;99280.27;1625031;86;21663;-62
2022/05/24 11:30:40;;;;;;;3.15;1.80;;;;;;;24.91;21.90;99285.47;1623687;86;21564;-62
2022/05/24 11:33:11;;;;;;;2.58;1.57;;;;;;;24.98;22.00;99287.01;1631091;86;21507;-63
2022/05/24 11:35:50;;;;;;;1.60;1.50;;;;;;;24.87;21.15;99286.82;1686226;83;21565;-63
2022/05/24 11:38:25;;;;;;;4.35;1.60;;;;;;;24.86;21.54;99289.16;1697036;83;21455;-63
2022/05/24 11:41:07;;;;;;;2.70;1.57;;;;;;;24.96;21.75;99289.86;1688860;83;21962;-63
2022/05/24 11:43:44;;;;;;;2.67;1.67;;;;;;;25.06;22.76;99287.00;1689216;83;21471;-62
2022/05/24 11:46:37;;;;;;;1.95;1.22;;;;;;;25.18;22.27;99284.81;1682695;83;21557;-61
2022/05/24 11:49:26;;;;;;;1.60;1.50;;;;;;;25.27;22.18;99287.03;1675796;83;21503;-62
2022/05/24 11:52:01;;;;;;;1.35;1.15;;;;;;;25.35;22.22;99281.12;1680669;83;21585;-62
2022/05/24 11:54:33;;;;;;;1.55;1.42;;;;;;;25.47;21.96;99287.02;1680322;83;22104;-63
2022/05/24 11:57:09;;;;;;;1.32;1.22;;;;;;;25.57;22.06;99285.48;1678800;83;21544;-62
2022/05/24 11:59:48;;;;;;;3.35;1.40;;;;;;;25.66;21.57;99279.59;1686984;83;21534;-62
2022/05/24 12:02:29;;;;;;;1.32;1.22;;;;;;;25.64;21.75;99278.41;1680975;83;21497;-61
2022/05/24 12:08:04;;;;;;;3.02;1.42;;;;;;;25.80;21.66;99282.38;1677564;83;21910;-62
2022/05/24 12:10:49;;;;;;;5.35;1.50;;;;;;;25.85;21.55;99276.50;1673626;83;21620;-62
2022/05/24 12:13:34;;;;;;;1.40;1.30;;;;;;;25.79;21.61;99271.81;1675515;83;20977;-62
2022/05/24 12:16:06;;;;;;;1.90;1.70;;;;;;;25.82;21.44;99270.09;1684710;83;21641;-62
2022/05/24 12:18:46;;;;;;;3.15;1.30;;;;;;;25.89;21.71;99274.30;1653959;85;21573;-63
2022/05/24 12:21:35;;;;;;;3.87;1.30;;;;;;;25.97;21.94;99272.94;1675278;83;21825;-62
2022/05/24 12:24:30;;;;;;;2.55;1.57;;;;;;;26.12;21.83;99278.45;1674935;84;21557;-62
2022/05/24 12:27:39;;;;;;;2.77;1.42;;;;;;;26.11;21.57;99255.23;1677389;83;21541;-64
2022/05/24 12:30:28;;;;;;;1.50;1.40;;;;;;;26.30;21.43;99264.22;1678887;83;21605;-63
2022/05/24 12:32:56;;;;;;;3.77;1.27;;;;;;;26.47;21.41;99269.02;1641080;85;21617;-61
2022/05/24 12:35:23;;;;;;;10.58;1.70;;;;;;;26.48;22.22;99265.80;1607081;87;21892;-62
2022/05/24 12:37:54;;;;;;;2.65;2.15;;;;;;;26.52;21.83;99263.08;1644474;85;21540;-65
2022/05/24 12:40:27;;;;;;;3.08;1.50;;;;;;;26.51;21.61;99272.19;1630939;86;21023;-62